Time;durP1;ratioP1;P1;durP2;ratioP2;P2;SDS_P1;SDS_P2;PMS_P1;PMS_P2;Temp;Humidity;BMP_temperature;BMP_pressure;BME280_temperature;BME280_humidity;BME280_pressure;Samples;Min_cycle;Max_cycle;Signal;HPM_P1;HPM_P2
2021/07/11 00:02:05;;;;;;;3.93;2.80;;;;;;;;;;5097686;28;20176;-83
2021/07/11 00:04:31;;;;;;;3.10;2.80;;;;;;;;;;5099743;28;20165;-83
2021/07/11 00:06:57;;;;;;;3.00;2.80;;;;;;;;;;5082336;28;20425;-82
2021/07/11 00:09:23;;;;;;;3.10;2.20;;;;;;;;;;5076867;28;20191;-83
2021/07/11 00:11:49;;;;;;;2.57;2.37;;;;;;;;;;5071274;28;20168;-83
2021/07/11 00:14:15;;;;;;;2.77;2.30;;;;;;;;;;5077119;28;20177;-83
2021/07/11 00:16:41;;;;;;;3.80;2.70;;;;;;;;;;5076852;28;20171;-83
2021/07/11 00:19:07;;;;;;;2.80;2.50;;;;;;;;;;5077230;28;20172;-84
2021/07/11 00:21:33;;;;;;;2.80;2.60;;;;;;;;;;5073865;28;20185;-83
2021/07/11 00:23:59;;;;;;;3.23;2.87;;;;;;;;;;5077795;28;20181;-84
2021/07/11 00:26:25;;;;;;;3.13;2.17;;;;;;;;;;5065081;28;20220;-83
2021/07/11 00:28:51;;;;;;;2.33;2.13;;;;;;;;;;5056962;28;20174;-82
2021/07/11 00:31:17;;;;;;;2.73;2.53;;;;;;;;;;5058952;28;20181;-83
2021/07/11 00:33:43;;;;;;;2.57;2.20;;;;;;;;;;5056435;28;20228;-82
2021/07/11 00:36:09;;;;;;;3.53;2.40;;;;;;;;;;5072687;28;20254;-83
2021/07/11 00:38:35;;;;;;;3.83;2.10;;;;;;;;;;5074951;28;20186;-82
2021/07/11 00:41:01;;;;;;;2.60;2.23;;;;;;;;;;5075737;28;20181;-83
2021/07/11 00:43:27;;;;;;;3.30;2.67;;;;;;;;;;5075481;28;20200;-82
2021/07/11 00:45:53;;;;;;;2.87;2.37;;;;;;;;;;5077503;28;20225;-83
2021/07/11 00:48:20;;;;;;;3.53;2.10;;;;;;;;;;5076737;28;20188;-83
2021/07/11 00:50:46;;;;;;;3.83;2.23;;;;;;;;;;5060942;28;20657;-83
2021/07/11 00:53:14;;;;;;;3.53;2.63;;;;;;;;;;5064830;28;20184;-82
2021/07/11 00:55:40;;;;;;;2.00;1.80;;;;;;;;;;5075692;28;20212;-83
2021/07/11 00:58:06;;;;;;;2.63;2.03;;;;;;;;;;5076948;28;20520;-82
2021/07/11 01:00:33;;;;;;;2.93;2.37;;;;;;;;;;5077056;28;20175;-83
2021/07/11 01:03:03;;;;;;;2.57;2.37;;;;;;;;;;5080354;28;20188;-82
2021/07/11 01:05:30;;;;;;;2.57;2.33;;;;;;;;;;5086069;28;20237;-81
2021/07/11 01:07:59;;;;;;;2.20;2.00;;;;;;;;;;5087587;28;20192;-81
2021/07/11 01:10:44;;;;;;;2.63;2.23;;;;;;;;;;5086950;28;20177;-82
2021/07/11 01:13:12;;;;;;;2.90;2.57;;;;;;;;;;5089711;28;20178;-82
2021/07/11 01:15:40;;;;;;;2.50;2.30;;;;;;;;;;5087607;28;20298;-82
2021/07/11 01:18:07;;;;;;;3.53;2.70;;;;;;;;;;5089131;28;20199;-82
2021/07/11 01:20:36;;;;;;;2.43;2.23;;;;;;;;;;5069153;28;20180;-81
2021/07/11 01:23:02;;;;;;;3.17;2.23;;;;;;;;;;5071913;28;20611;-82
2021/07/11 01:25:34;;;;;;;2.87;2.40;;;;;;;;;;5084841;28;20176;-82
2021/07/11 01:28:02;;;;;;;2.17;1.97;;;;;;;;;;5076688;28;20187;-82
2021/07/11 01:30:29;;;;;;;2.80;2.27;;;;;;;;;;5076401;28;20183;-82
2021/07/11 01:32:55;;;;;;;2.80;2.30;;;;;;;;;;5075806;28;20184;-82
2021/07/11 01:35:21;;;;;;;3.77;2.27;;;;;;;;;;5057096;28;20235;-83
2021/07/11 01:37:47;;;;;;;3.40;2.57;;;;;;;;;;5056981;28;20174;-83
2021/07/11 01:40:14;;;;;;;3.03;2.73;;;;;;;;;;5075585;28;20172;-83
2021/07/11 01:42:41;;;;;;;2.47;2.23;;;;;;;;;;5074328;28;20174;-83
2021/07/11 01:45:07;;;;;;;2.73;2.53;;;;;;;;;;5074783;28;20182;-83
2021/07/11 01:47:34;;;;;;;3.23;2.70;;;;;;;;;;5072247;28;20181;-82
2021/07/11 01:50:01;;;;;;;3.27;2.97;;;;;;;;;;5074172;28;20231;-82
2021/07/11 01:52:27;;;;;;;4.97;2.93;;;;;;;;;;5064254;28;20586;-82
2021/07/11 01:54:53;;;;;;;2.90;2.70;;;;;;;;;;5068632;28;20684;-82
2021/07/11 01:57:19;;;;;;;4.53;3.10;;;;;;;;;;5063639;28;20183;-82
2021/07/11 01:59:45;;;;;;;3.40;3.10;;;;;;;;;;5073975;28;20265;-82
2021/07/11 02:02:11;;;;;;;6.33;3.03;;;;;;;;;;5071421;28;20178;-82
2021/07/11 02:04:37;;;;;;;4.87;3.40;;;;;;;;;;5069564;28;20209;-82
2021/07/11 02:07:03;;;;;;;2.90;2.60;;;;;;;;;;5071772;28;20644;-83
2021/07/11 02:09:30;;;;;;;3.10;2.80;;;;;;;;;;5068273;28;20186;-82
2021/07/11 02:12:01;;;;;;;2.97;2.70;;;;;;;;;;5069401;28;20193;-82
2021/07/11 02:14:30;;;;;;;4.03;3.10;;;;;;;;;;5088905;28;20186;-83
2021/07/11 02:17:13;;;;;;;3.83;3.47;;;;;;;;;;5071971;28;20175;-82
2021/07/11 02:19:40;;;;;;;3.67;3.37;;;;;;;;;;5061409;28;20179;-82
2021/07/11 02:22:11;;;;;;;3.80;3.40;;;;;;;;;;5052627;28;20420;-82
2021/07/11 02:24:38;;;;;;;3.57;3.23;;;;;;;;;;5060442;28;20179;-82
2021/07/11 02:27:06;;;;;;;7.23;3.77;;;;;;;;;;5074232;28;20241;-82
2021/07/11 02:29:38;;;;;;;4.00;3.67;;;;;;;;;;5072282;28;20182;-83
2021/07/11 02:32:06;;;;;;;3.60;3.30;;;;;;;;;;5066663;28;20185;-82
2021/07/11 02:34:32;;;;;;;4.23;3.40;;;;;;;;;;5052550;28;20184;-82
2021/07/11 02:36:59;;;;;;;4.30;3.63;;;;;;;;;;5064080;28;20173;-82
2021/07/11 02:39:25;;;;;;;4.13;3.53;;;;;;;;;;5071774;28;20632;-82
2021/07/11 02:41:53;;;;;;;3.93;3.57;;;;;;;;;;5054595;28;20185;-82
2021/07/11 02:44:20;;;;;;;4.67;3.80;;;;;;;;;;5071599;28;20267;-82
2021/07/11 02:46:48;;;;;;;4.07;3.63;;;;;;;;;;5069795;28;20177;-82
2021/07/11 02:49:18;;;;;;;4.13;3.73;;;;;;;;;;5069088;28;20503;-82
2021/07/11 02:51:49;;;;;;;4.57;4.17;;;;;;;;;;5053015;28;20667;-82
2021/07/11 02:54:17;;;;;;;4.13;3.73;;;;;;;;;;5093007;28;20217;-82
2021/07/11 02:56:44;;;;;;;5.23;4.33;;;;;;;;;;5073951;28;20223;-82
2021/07/11 02:59:11;;;;;;;4.63;4.10;;;;;;;;;;5076262;28;20176;-82
2021/07/11 03:01:37;;;;;;;5.30;4.63;;;;;;;;;;5081102;28;20176;-82
2021/07/11 03:04:05;;;;;;;4.40;4.00;;;;;;;;;;5089516;28;20177;-82
2021/07/11 03:06:32;;;;;;;4.93;4.43;;;;;;;;;;5067021;28;20261;-82
2021/07/11 03:08:58;;;;;;;5.07;4.57;;;;;;;;;;5055029;28;20192;-82
2021/07/11 03:11:26;;;;;;;4.77;3.97;;;;;;;;;;5072695;28;20185;-82
2021/07/11 03:13:52;;;;;;;5.93;4.77;;;;;;;;;;5074502;28;20184;-82
2021/07/11 03:16:20;;;;;;;6.00;4.67;;;;;;;;;;5074162;28;20211;-82
2021/07/11 03:18:47;;;;;;;7.23;6.53;;;;;;;;;;5075743;28;20226;-82
2021/07/11 03:21:14;;;;;;;6.50;5.40;;;;;;;;;;5062154;28;20242;-82
2021/07/11 03:23:40;;;;;;;5.77;5.13;;;;;;;;;;5054551;28;20170;-82
2021/07/11 03:26:06;;;;;;;5.20;4.70;;;;;;;;;;5064615;28;20188;-82
2021/07/11 03:28:34;;;;;;;7.80;5.67;;;;;;;;;;5054230;28;20179;-82
2021/07/11 03:31:03;;;;;;;5.23;4.73;;;;;;;;;;5062210;28;20180;-82
2021/07/11 03:33:30;;;;;;;6.97;6.23;;;;;;;;;;5074072;28;20176;-82
2021/07/11 03:35:58;;;;;;;6.43;5.83;;;;;;;;;;5072449;28;20208;-81
2021/07/11 03:38:27;;;;;;;7.43;5.37;;;;;;;;;;5059574;28;20191;-82
2021/07/11 03:40:54;;;;;;;5.37;4.87;;;;;;;;;;5061797;28;20211;-82
2021/07/11 03:43:22;;;;;;;5.73;5.17;;;;;;;;;;5073563;28;20176;-82
2021/07/11 03:45:49;;;;;;;6.53;5.40;;;;;;;;;;5074842;28;20186;-82
2021/07/11 03:48:21;;;;;;;6.20;5.13;;;;;;;;;;5068580;28;20703;-81
2021/07/11 03:50:50;;;;;;;6.30;5.70;;;;;;;;;;5073180;28;20208;-82
2021/07/11 03:53:20;;;;;;;5.90;5.10;;;;;;;;;;5053256;28;20502;-82
2021/07/11 03:55:48;;;;;;;8.33;5.77;;;;;;;;;;5059494;28;20299;-82
2021/07/11 03:58:14;;;;;;;6.57;5.37;;;;;;;;;;5062576;28;20185;-82
2021/07/11 04:00:40;;;;;;;6.67;5.80;;;;;;;;;;5074329;28;20180;-81
2021/07/11 04:03:08;;;;;;;6.50;5.67;;;;;;;;;;5074787;28;20570;-81
2021/07/11 04:05:35;;;;;;;5.60;4.90;;;;;;;;;;5063463;28;20251;-82
2021/07/11 04:08:02;;;;;;;6.37;5.30;;;;;;;;;;5068686;28;20200;-82
2021/07/11 04:10:30;;;;;;;5.73;5.10;;;;;;;;;;5072612;28;20654;-82
2021/07/11 04:12:58;;;;;;;5.20;4.80;;;;;;;;;;5072637;28;20635;-82
2021/07/11 04:15:24;;;;;;;6.10;5.13;;;;;;;;;;5072539;28;20204;-82
2021/07/11 04:17:51;;;;;;;6.80;5.33;;;;;;;;;;5072846;28;20540;-82
2021/07/11 04:20:19;;;;;;;6.20;5.40;;;;;;;;;;5065900;28;20181;-82
2021/07/11 04:22:47;;;;;;;6.10;5.50;;;;;;;;;;5052822;28;20276;-82
2021/07/11 04:25:14;;;;;;;5.53;5.03;;;;;;;;;;5058188;28;20178;-82
2021/07/11 04:27:41;;;;;;;5.87;5.37;;;;;;;;;;5072434;28;20183;-83
2021/07/11 04:30:08;;;;;;;6.13;5.47;;;;;;;;;;5072439;28;20216;-82
2021/07/11 04:32:35;;;;;;;6.10;5.10;;;;;;;;;;5071733;28;20639;-82
2021/07/11 04:35:01;;;;;;;7.40;5.70;;;;;;;;;;5064007;28;20205;-82
2021/07/11 04:37:27;;;;;;;6.53;5.43;;;;;;;;;;5065747;28;20169;-82
2021/07/11 04:39:53;;;;;;;6.00;5.27;;;;;;;;;;5071746;28;20175;-82
2021/07/11 04:42:19;;;;;;;6.83;5.30;;;;;;;;;;5072059;28;20176;-82
2021/07/11 04:44:45;;;;;;;6.67;5.60;;;;;;;;;;5072940;28;20647;-82
2021/07/11 04:47:12;;;;;;;6.30;5.70;;;;;;;;;;5072181;28;20904;-82
2021/07/11 04:49:38;;;;;;;10.37;5.67;;;;;;;;;;5071859;28;20478;-82
2021/07/11 04:52:05;;;;;;;6.93;6.20;;;;;;;;;;5058239;28;20185;-82
2021/07/11 04:54:32;;;;;;;5.93;5.40;;;;;;;;;;5052156;28;20223;-82
2021/07/11 04:56:58;;;;;;;6.83;6.13;;;;;;;;;;5069474;28;20273;-82
2021/07/11 04:59:24;;;;;;;5.67;5.13;;;;;;;;;;5072358;28;20628;-82
2021/07/11 05:01:50;;;;;;;10.33;6.43;;;;;;;;;;5071995;28;20180;-82
2021/07/11 05:04:16;;;;;;;6.23;5.63;;;;;;;;;;5070515;28;20230;-82
2021/07/11 05:06:42;;;;;;;6.60;5.90;;;;;;;;;;5071204;28;20219;-82
2021/07/11 05:09:09;;;;;;;7.63;6.93;;;;;;;;;;5072022;28;20632;-82
2021/07/11 05:11:35;;;;;;;6.43;5.83;;;;;;;;;;5072370;28;20192;-81
2021/07/11 05:14:01;;;;;;;7.17;5.83;;;;;;;;;;5071308;28;20215;-82
2021/07/11 05:16:27;;;;;;;8.83;7.63;;;;;;;;;;5064134;28;20195;-82
2021/07/11 05:18:53;;;;;;;7.33;6.63;;;;;;;;;;5051699;28;20184;-82
2021/07/11 05:21:20;;;;;;;6.90;6.13;;;;;;;;;;5062338;28;20168;-82
2021/07/11 05:23:46;;;;;;;8.30;7.43;;;;;;;;;;5072748;28;20165;-82
2021/07/11 05:26:12;;;;;;;8.07;7.27;;;;;;;;;;5072300;28;20220;-82
2021/07/11 05:28:40;;;;;;;7.47;6.77;;;;;;;;;;5066082;28;20173;-82
2021/07/11 05:31:06;;;;;;;8.33;6.87;;;;;;;;;;5072324;28;20256;-82
2021/07/11 05:33:33;;;;;;;7.77;7.07;;;;;;;;;;5069361;28;20215;-82
2021/07/11 05:35:59;;;;;;;7.53;6.83;;;;;;;;;;5070629;28;20189;-82
2021/07/11 05:38:25;;;;;;;7.57;6.77;;;;;;;;;;5070910;28;20181;-81
2021/07/11 05:40:51;;;;;;;8.73;6.80;;;;;;;;;;5071268;28;20267;-82
2021/07/11 05:43:17;;;;;;;7.77;7.07;;;;;;;;;;5071095;28;20179;-82
2021/07/11 05:45:43;;;;;;;8.00;7.20;;;;;;;;;;5055086;28;20185;-82
2021/07/11 05:48:09;;;;;;;7.90;7.10;;;;;;;;;;5060710;28;20180;-82
2021/07/11 05:50:36;;;;;;;8.70;7.30;;;;;;;;;;5058441;28;20272;-81
2021/07/11 05:53:02;;;;;;;9.03;8.13;;;;;;;;;;5051800;28;20185;-81
2021/07/11 05:55:28;;;;;;;9.40;8.07;;;;;;;;;;5050937;28;20200;-81
2021/07/11 05:57:54;;;;;;;9.13;8.00;;;;;;;;;;5053589;28;20184;-81
2021/07/11 06:00:20;;;;;;;8.90;8.10;;;;;;;;;;5068576;28;20531;-82
2021/07/11 06:02:46;;;;;;;8.60;7.57;;;;;;;;;;5068145;28;20212;-82
2021/07/11 06:05:12;;;;;;;8.83;7.93;;;;;;;;;;5043489;28;20184;-81
2021/07/11 06:07:38;;;;;;;9.27;8.37;;;;;;;;;;5071457;28;20192;-82
2021/07/11 06:10:05;;;;;;;11.90;8.13;;;;;;;;;;5070695;28;20184;-81
2021/07/11 06:12:31;;;;;;;11.00;8.80;;;;;;;;;;5070204;28;20187;-81
2021/07/11 06:14:57;;;;;;;10.70;9.57;;;;;;;;;;5067143;28;20196;-82
2021/07/11 06:17:24;;;;;;;10.30;9.20;;;;;;;;;;5071373;28;20172;-82
2021/07/11 06:19:50;;;;;;;10.20;9.13;;;;;;;;;;5067434;28;20180;-82
2021/07/11 06:22:16;;;;;;;10.40;9.30;;;;;;;;;;5068758;28;20184;-82
2021/07/11 06:24:42;;;;;;;11.70;9.77;;;;;;;;;;5070907;28;20539;-82
2021/07/11 06:27:08;;;;;;;10.37;9.13;;;;;;;;;;5061046;28;20658;-81
2021/07/11 06:29:34;;;;;;;10.50;9.47;;;;;;;;;;5068312;28;20172;-81
2021/07/11 06:32:00;;;;;;;11.43;10.23;;;;;;;;;;5075234;28;20180;-82
2021/07/11 06:34:26;;;;;;;14.63;13.13;;;;;;;;;;5069608;28;20415;-82
2021/07/11 06:36:52;;;;;;;12.90;11.60;;;;;;;;;;5071285;28;20571;-80
2021/07/11 06:39:18;;;;;;;13.43;12.13;;;;;;;;;;5074143;28;20172;-79
2021/07/11 06:41:44;;;;;;;12.70;11.40;;;;;;;;;;5069442;28;20174;-80
2021/07/11 06:44:10;;;;;;;12.90;11.47;;;;;;;;;;5074666;28;20173;-80
2021/07/11 06:46:36;;;;;;;11.57;10.37;;;;;;;;;;5074383;28;20235;-80
2021/07/11 06:49:02;;;;;;;12.37;11.07;;;;;;;;;;5075436;28;20165;-80
2021/07/11 06:51:28;;;;;;;12.77;11.57;;;;;;;;;;5074044;28;20180;-79
2021/07/11 06:53:54;;;;;;;13.37;11.93;;;;;;;;;;5073553;28;20232;-80
2021/07/11 06:56:21;;;;;;;16.37;12.00;;;;;;;;;;5073449;28;20204;-80
2021/07/11 06:58:47;;;;;;;13.10;11.63;;;;;;;;;;5072060;28;20181;-80
2021/07/11 07:01:13;;;;;;;13.83;12.53;;;;;;;;;;5072538;28;20184;-80
2021/07/11 07:03:39;;;;;;;14.03;12.63;;;;;;;;;;5071351;28;20181;-80
2021/07/11 07:06:07;;;;;;;14.77;13.27;;;;;;;;;;5071864;28;20208;-79
2021/07/11 07:08:33;;;;;;;15.80;13.13;;;;;;;;;;5073137;28;20184;-80
2021/07/11 07:10:59;;;;;;;15.87;14.17;;;;;;;;;;5072730;28;20637;-80
2021/07/11 07:13:25;;;;;;;15.20;13.60;;;;;;;;;;5073801;28;20196;-80
2021/07/11 07:15:51;;;;;;;19.33;16.90;;;;;;;;;;5073484;28;20201;-79
2021/07/11 07:18:17;;;;;;;35.70;29.90;;;;;;;;;;5073211;28;20237;-79
2021/07/11 07:20:44;;;;;;;39.23;33.07;;;;;;;;;;5074360;28;20176;-78
2021/07/11 07:23:09;;;;;;;41.67;34.17;;;;;;;;;;5072511;28;20211;-78
2021/07/11 07:25:36;;;;;;;41.20;33.03;;;;;;;;;;5075982;28;20186;-78
2021/07/11 07:28:02;;;;;;;45.13;35.17;;;;;;;;;;5073327;28;20526;-78
2021/07/11 07:30:28;;;;;;;45.20;35.93;;;;;;;;;;5073940;28;20196;-79
2021/07/11 07:32:54;;;;;;;50.03;37.10;;;;;;;;;;5073137;28;20181;-78
2021/07/11 07:35:21;;;;;;;44.07;36.73;;;;;;;;;;5061446;28;20219;-78
2021/07/11 07:37:48;;;;;;;50.13;36.43;;;;;;;;;;5075490;28;20184;-78
2021/07/11 07:40:17;;;;;;;54.33;40.37;;;;;;;;;;5073166;28;20756;-78
2021/07/11 07:42:43;;;;;;;52.97;39.70;;;;;;;;;;5076071;28;20185;-79
2021/07/11 07:45:11;;;;;;;54.40;37.67;;;;;;;;;;5071800;28;20205;-85
2021/07/11 07:47:37;;;;;;;57.00;39.43;;;;;;;;;;5073226;28;20180;-84
2021/07/11 07:50:05;;;;;;;52.13;38.60;;;;;;;;;;5074013;28;20184;-83
2021/07/11 07:52:31;;;;;;;53.90;36.87;;;;;;;;;;5074743;28;20703;-84
2021/07/11 07:54:57;;;;;;;58.40;39.63;;;;;;;;;;5074244;28;20306;-84
2021/07/11 07:57:23;;;;;;;52.17;38.57;;;;;;;;;;5074929;28;20202;-84
2021/07/11 07:59:49;;;;;;;48.10;35.80;;;;;;;;;;5075380;28;20172;-84
2021/07/11 08:02:15;;;;;;;53.90;36.83;;;;;;;;;;5074444;28;20223;-84
2021/07/11 08:04:42;;;;;;;48.27;36.03;;;;;;;;;;5076763;28;20203;-84
2021/07/11 08:07:08;;;;;;;56.47;38.27;;;;;;;;;;5074842;28;20612;-84
2021/07/11 08:09:34;;;;;;;53.43;36.57;;;;;;;;;;5075020;28;20656;-79
2021/07/11 08:12:01;;;;;;;54.37;35.40;;;;;;;;;;5075455;28;20196;-80
2021/07/11 08:14:27;;;;;;;50.60;36.77;;;;;;;;;;5074273;28;20214;-80
2021/07/11 08:16:53;;;;;;;54.57;37.07;;;;;;;;;;5073222;28;20200;-80
2021/07/11 08:19:19;;;;;;;51.63;35.57;;;;;;;;;;5075682;28;20171;-80
2021/07/11 08:21:45;;;;;;;49.23;35.27;;;;;;;;;;5074401;28;20260;-80
2021/07/11 08:24:11;;;;;;;52.00;36.77;;;;;;;;;;5106794;28;20181;-80
2021/07/11 08:26:37;;;;;;;49.90;36.10;;;;;;;;;;5073342;28;20548;-81
2021/07/11 08:29:03;;;;;;;50.97;36.53;;;;;;;;;;5076256;28;20172;-81
2021/07/11 08:31:29;;;;;;;55.70;42.72;;;;;;;;;;5074407;28;20467;-79
2021/07/11 08:33:55;;;;;;;52.13;37.47;;;;;;;;;;5073979;28;20196;-77
2021/07/11 08:36:22;;;;;;;60.03;39.00;;;;;;;;;;5076415;28;20651;-77
2021/07/11 08:38:48;;;;;;;52.47;35.30;;;;;;;;;;5075909;28;20532;-79
2021/07/11 08:41:14;;;;;;;50.67;35.60;;;;;;;;;;5075159;28;20199;-79
2021/07/11 08:43:40;;;;;;;49.60;33.80;;;;;;;;;;5074943;28;20196;-80
2021/07/11 08:46:06;;;;;;;50.00;35.10;;;;;;;;;;5075142;28;20552;-80
2021/07/11 08:48:32;;;;;;;45.27;33.83;;;;;;;;;;5075566;28;20216;-81
2021/07/11 08:51:01;;;;;;;45.17;32.87;;;;;;;;;;5074174;28;20190;-79
2021/07/11 08:53:27;;;;;;;41.47;31.33;;;;;;;;;;5074620;28;20228;-79
2021/07/11 08:55:53;;;;;;;47.27;34.30;;;;;;;;;;5073361;28;20211;-80
2021/07/11 08:58:19;;;;;;;44.60;32.47;;;;;;;;;;5076379;28;20187;-79
2021/07/11 09:00:47;;;;;;;42.73;32.60;;;;;;;;;;5081195;28;20214;-79
2021/07/11 09:03:13;;;;;;;44.00;32.00;;;;;;;;;;5073017;28;20694;-81
2021/07/11 09:05:41;;;;;;;43.40;33.03;;;;;;;;;;5071622;28;20334;-82
2021/07/11 09:08:10;;;;;;;43.10;30.70;;;;;;;;;;5071862;28;20204;-82
2021/07/11 09:10:39;;;;;;;40.00;28.73;;;;;;;;;;5071952;28;20176;-82
2021/07/11 09:13:10;;;;;;;45.03;29.20;;;;;;;;;;5074105;28;20188;-83
2021/07/11 09:15:36;;;;;;;64.70;29.03;;;;;;;;;;5073290;28;20200;-87
2021/07/11 09:18:03;;;;;;;52.87;27.67;;;;;;;;;;5074279;28;20176;-83
2021/07/11 09:20:29;;;;;;;69.03;27.80;;;;;;;;;;5062257;28;20180;-83
2021/07/11 09:22:59;;;;;;;60.07;27.33;;;;;;;;;;5073145;28;20169;-82
2021/07/11 09:25:25;;;;;;;74.67;27.33;;;;;;;;;;5072389;28;20647;-82
2021/07/11 09:27:51;;;;;;;64.03;27.67;;;;;;;;;;5071548;28;20536;-80
2021/07/11 09:30:18;;;;;;;71.70;26.00;;;;;;;;;;5075195;28;20169;-81
2021/07/11 09:32:44;;;;;;;66.60;24.63;;;;;;;;;;5090364;28;20181;-81
2021/07/11 09:35:10;;;;;;;54.57;23.57;;;;;;;;;;5071566;28;20550;-82
2021/07/11 09:37:37;;;;;;;40.63;25.40;;;;;;;;;;5102927;28;20185;-82
2021/07/11 09:40:04;;;;;;;52.27;24.27;;;;;;;;;;5069841;28;20233;-83
2021/07/11 09:42:35;;;;;;;45.10;25.10;;;;;;;;;;5070598;28;20188;-82
2021/07/11 09:45:03;;;;;;;70.00;26.40;;;;;;;;;;5070465;28;20631;-81
2021/07/11 09:47:31;;;;;;;50.63;23.77;;;;;;;;;;5071992;28;20477;-82
2021/07/11 09:50:02;;;;;;;50.43;23.20;;;;;;;;;;5070037;28;20177;-81
2021/07/11 09:52:29;;;;;;;51.70;24.07;;;;;;;;;;5060013;28;20215;-82
2021/07/11 09:54:57;;;;;;;46.63;21.57;;;;;;;;;;5048824;28;20233;-82
2021/07/11 09:57:37;;;;;;;43.60;26.05;;;;;;;;;;5049254;28;20454;-81
2021/07/11 10:00:08;;;;;;;43.97;26.25;;;;;;;;;;5049616;28;20470;-81
2021/07/11 10:02:34;;;;;;;38.83;23.00;;;;;;;;;;5051530;28;20579;-81
2021/07/11 10:05:01;;;;;;;38.13;23.20;;;;;;;;;;5050599;28;20185;-81
2021/07/11 10:07:27;;;;;;;33.60;22.90;;;;;;;;;;5050357;28;20200;-80
2021/07/11 10:09:53;;;;;;;34.47;22.97;;;;;;;;;;5050357;28;20542;-80
2021/07/11 10:12:19;;;;;;;30.90;22.17;;;;;;;;;;5051427;28;20251;-80
2021/07/11 10:14:45;;;;;;;31.47;22.97;;;;;;;;;;5050404;28;20687;-80
2021/07/11 10:17:11;;;;;;;31.13;21.77;;;;;;;;;;5049967;28;20637;-81
2021/07/11 10:19:37;;;;;;;35.00;23.70;;;;;;;;;;5050849;28;20182;-81
2021/07/11 10:22:11;;;;;;;34.33;22.87;;;;;;;;;;5048969;28;20574;-81
2021/07/11 10:24:46;;;;;;;30.07;23.27;;;;;;;;;;5049615;28;20176;-80
2021/07/11 10:27:18;;;;;;;26.67;21.00;;;;;;;;;;5051056;28;20203;-80
2021/07/11 10:29:45;;;;;;;31.20;23.03;;;;;;;;;;5051353;28;20166;-80
2021/07/11 10:32:20;;;;;;;31.20;22.97;;;;;;;;;;5049660;28;20231;-80
2021/07/11 10:34:47;;;;;;;30.50;23.10;;;;;;;;;;5049973;28;20157;-80
2021/07/11 10:37:14;;;;;;;27.80;23.23;;;;;;;;;;5050580;28;20177;-80
2021/07/11 10:39:40;;;;;;;32.57;23.10;;;;;;;;;;5050778;28;20165;-80
2021/07/11 10:42:08;;;;;;;30.73;20.77;;;;;;;;;;5050797;28;20197;-80
2021/07/11 10:44:34;;;;;;;29.90;22.50;;;;;;;;;;5051214;28;20635;-81
2021/07/11 10:47:02;;;;;;;23.67;19.77;;;;;;;;;;5049436;28;20181;-80
2021/07/11 10:49:30;;;;;;;28.33;21.10;;;;;;;;;;5051321;28;20246;-81
2021/07/11 10:52:01;;;;;;;33.00;22.90;;;;;;;;;;5050402;28;20207;-80
2021/07/11 10:54:32;;;;;;;30.50;21.97;;;;;;;;;;5049433;28;20232;-80
2021/07/11 10:56:59;;;;;;;28.43;20.30;;;;;;;;;;5049509;28;20205;-80
2021/07/11 10:59:38;;;;;;;27.53;22.97;;;;;;;;;;5062708;28;20177;-80
2021/07/11 11:02:06;;;;;;;27.43;21.97;;;;;;;;;;5070401;28;20183;-81
2021/07/11 11:04:32;;;;;;;27.07;20.87;;;;;;;;;;5070897;28;20169;-80
2021/07/11 11:07:12;;;;;;;21.73;19.47;;;;;;;;;;5068757;28;20257;-81
2021/07/11 11:09:46;;;;;;;23.67;18.67;;;;;;;;;;5069909;28;20482;-80
2021/07/11 11:12:22;;;;;;;24.63;22.03;;;;;;;;;;5071308;28;20191;-81
2021/07/11 11:15:01;;;;;;;25.17;21.30;;;;;;;;;;5072007;28;20631;-81
2021/07/11 11:17:34;;;;;;;25.60;19.23;;;;;;;;;;5075610;28;20168;-80
2021/07/11 11:20:02;;;;;;;21.83;18.20;;;;;;;;;;5074361;28;20263;-81
2021/07/11 11:22:28;;;;;;;23.60;19.73;;;;;;;;;;5074114;28;20176;-80
2021/07/11 11:24:54;;;;;;;26.33;21.47;;;;;;;;;;5075310;28;20219;-81
2021/07/11 11:27:30;;;;;;;22.97;20.07;;;;;;;;;;5075136;28;20164;-81
2021/07/11 11:30:07;;;;;;;22.00;19.60;;;;;;;;;;5073959;28;20173;-80
2021/07/11 11:32:33;;;;;;;22.40;19.73;;;;;;;;;;5073894;28;20619;-81
2021/07/11 11:34:59;;;;;;;22.03;19.73;;;;;;;;;;5075737;28;20188;-80
2021/07/11 11:37:25;;;;;;;21.70;18.17;;;;;;;;;;5074446;28;20169;-81
2021/07/11 11:39:53;;;;;;;21.27;19.03;;;;;;;;;;5075650;28;20165;-80
2021/07/11 11:42:21;;;;;;;26.63;18.67;;;;;;;;;;5075259;28;20556;-81
2021/07/11 11:44:47;;;;;;;21.53;19.07;;;;;;;;;;5075498;28;20169;-81
2021/07/11 11:47:13;;;;;;;21.67;17.87;;;;;;;;;;5074011;28;20508;-81
2021/07/11 11:49:41;;;;;;;17.80;16.10;;;;;;;;;;5075313;28;20628;-81
2021/07/11 11:52:07;;;;;;;17.53;15.83;;;;;;;;;;5073437;28;20947;-81
2021/07/11 11:54:34;;;;;;;18.10;16.30;;;;;;;;;;5073255;28;20307;-81
2021/07/11 11:57:01;;;;;;;16.47;14.83;;;;;;;;;;5075079;28;20289;-81
2021/07/11 11:59:27;;;;;;;19.80;17.90;;;;;;;;;;5074315;28;20202;-81
2021/07/11 12:01:58;;;;;;;19.00;16.87;;;;;;;;;;5073532;28;20511;-81
2021/07/11 12:04:24;;;;;;;19.27;17.27;;;;;;;;;;5074125;28;20597;-81
2021/07/11 12:06:51;;;;;;;18.63;16.53;;;;;;;;;;5073205;28;20196;-81
2021/07/11 12:09:17;;;;;;;16.97;15.27;;;;;;;;;;5075436;28;20227;-81
2021/07/11 12:11:44;;;;;;;18.83;14.57;;;;;;;;;;5074617;28;20222;-81
2021/07/11 12:14:16;;;;;;;15.87;14.37;;;;;;;;;;5074336;28;20182;-82
2021/07/11 12:16:43;;;;;;;16.65;14.98;;;;;;;;;;5073316;28;20984;-81
2021/07/11 12:19:09;;;;;;;15.17;13.77;;;;;;;;;;5074100;28;20729;-81
2021/07/11 12:21:38;;;;;;;13.83;12.63;;;;;;;;;;5073890;28;20170;-80
2021/07/11 12:24:11;;;;;;;15.27;13.87;;;;;;;;;;5073356;28;20512;-80
2021/07/11 12:26:41;;;;;;;15.17;13.67;;;;;;;;;;5073190;28;20207;-81
2021/07/11 12:29:08;;;;;;;15.00;13.60;;;;;;;;;;5072663;28;20706;-80
2021/07/11 12:31:34;;;;;;;13.97;12.67;;;;;;;;;;5072169;28;20612;-80
2021/07/11 12:34:02;;;;;;;15.57;14.07;;;;;;;;;;5072366;28;20172;-81
2021/07/11 12:36:29;;;;;;;13.53;12.33;;;;;;;;;;5072109;28;20342;-81
2021/07/11 12:38:57;;;;;;;14.83;13.00;;;;;;;;;;5073098;28;20177;-81
2021/07/11 12:41:27;;;;;;;14.57;13.13;;;;;;;;;;5071764;28;20176;-82
2021/07/11 12:43:55;;;;;;;13.90;12.50;;;;;;;;;;5072629;28;20153;-82
2021/07/11 12:46:27;;;;;;;13.33;12.23;;;;;;;;;;5070665;28;20513;-82
2021/07/11 12:49:12;;;;;;;13.63;12.33;;;;;;;;;;5072952;28;20601;-81
2021/07/11 12:51:41;;;;;;;13.33;12.03;;;;;;;;;;5071921;28;20157;-82
2021/07/11 12:54:12;;;;;;;13.27;11.97;;;;;;;;;;5071901;28;20231;-80
2021/07/11 12:56:39;;;;;;;12.20;11.07;;;;;;;;;;5070831;28;20232;-80
2021/07/11 12:59:06;;;;;;;12.53;11.40;;;;;;;;;;5073010;28;20172;-79
2021/07/11 13:01:32;;;;;;;12.40;11.20;;;;;;;;;;5072252;28;20787;-82
2021/07/11 13:03:59;;;;;;;12.27;10.97;;;;;;;;;;5072762;28;20240;-82
2021/07/11 13:06:35;;;;;;;12.50;11.20;;;;;;;;;;5070515;28;20232;-82
2021/07/11 13:09:02;;;;;;;12.43;11.30;;;;;;;;;;5071492;28;20183;-82
2021/07/11 13:11:28;;;;;;;11.33;10.30;;;;;;;;;;5071943;28;20710;-80
2021/07/11 13:13:54;;;;;;;11.37;10.27;;;;;;;;;;5071500;28;20184;-79
2021/07/11 13:16:20;;;;;;;10.40;9.50;;;;;;;;;;5070825;28;20203;-79
2021/07/11 13:18:46;;;;;;;12.23;11.13;;;;;;;;;;5071265;28;20172;-80
2021/07/11 13:21:12;;;;;;;11.20;10.20;;;;;;;;;;5070562;28;20230;-82
2021/07/11 13:23:38;;;;;;;10.87;9.87;;;;;;;;;;5071149;28;20180;-82
2021/07/11 13:26:04;;;;;;;11.17;10.17;;;;;;;;;;5072179;28;20169;-82
2021/07/11 13:28:31;;;;;;;11.50;10.50;;;;;;;;;;5070572;28;20180;-80
2021/07/11 13:30:57;;;;;;;10.90;9.90;;;;;;;;;;5070639;28;20226;-82
2021/07/11 13:33:23;;;;;;;10.53;9.60;;;;;;;;;;5071987;28;20184;-82
2021/07/11 13:35:49;;;;;;;10.90;9.90;;;;;;;;;;5070163;28;20200;-79
2021/07/11 13:38:16;;;;;;;10.60;9.70;;;;;;;;;;5069937;28;20177;-79
2021/07/11 13:40:42;;;;;;;10.57;9.57;;;;;;;;;;5070580;28;20648;-82
2021/07/11 13:43:08;;;;;;;9.40;8.50;;;;;;;;;;5070225;28;20595;-79
2021/07/11 13:45:34;;;;;;;10.53;9.53;;;;;;;;;;5071856;28;20238;-82
2021/07/11 13:48:01;;;;;;;8.17;7.47;;;;;;;;;;5071712;28;20228;-79
2021/07/11 13:50:27;;;;;;;8.40;7.63;;;;;;;;;;5071634;28;20169;-79
2021/07/11 13:52:53;;;;;;;8.53;7.83;;;;;;;;;;5069586;28;20635;-79
2021/07/11 13:55:19;;;;;;;9.23;8.43;;;;;;;;;;5070039;28;20232;-82
2021/07/11 13:57:48;;;;;;;9.20;8.40;;;;;;;;;;5069860;28;20224;-82
2021/07/11 14:00:14;;;;;;;8.97;8.10;;;;;;;;;;5070324;28;20172;-79
2021/07/11 14:02:40;;;;;;;8.60;7.90;;;;;;;;;;5070007;28;20620;-80
2021/07/11 14:05:06;;;;;;;8.70;8.00;;;;;;;;;;5071686;28;20177;-82
2021/07/11 14:07:32;;;;;;;9.70;8.80;;;;;;;;;;5069443;28;20196;-81
2021/07/11 14:09:59;;;;;;;9.10;8.40;;;;;;;;;;5070293;28;20176;-79
2021/07/11 14:12:25;;;;;;;8.30;7.60;;;;;;;;;;5071167;28;20183;-79
2021/07/11 14:14:51;;;;;;;8.33;7.37;;;;;;;;;;5071408;28;20207;-81
2021/07/11 14:17:17;;;;;;;7.87;7.13;;;;;;;;;;5071279;28;20544;-82
2021/07/11 14:19:43;;;;;;;7.67;6.97;;;;;;;;;;5071312;28;20173;-82
2021/07/11 14:22:13;;;;;;;8.23;7.53;;;;;;;;;;5069377;28;20176;-82
2021/07/11 14:24:39;;;;;;;7.17;6.47;;;;;;;;;;5069964;28;20616;-79
2021/07/11 14:27:05;;;;;;;7.33;6.63;;;;;;;;;;5071350;28;20184;-82
2021/07/11 14:29:31;;;;;;;6.77;6.27;;;;;;;;;;5070089;28;20178;-82
2021/07/11 14:31:57;;;;;;;6.40;5.90;;;;;;;;;;5070211;28;20183;-81